createdAt,value
2023-05-09T00:02:19.883Z,85.80
2023-05-09T00:04:46.798Z,85.60
2023-05-09T00:07:13.619Z,85.80
2023-05-09T00:09:40.391Z,85.90
2023-05-09T00:12:07.934Z,85.90
2023-05-09T00:14:34.744Z,85.90
2023-05-09T00:17:01.430Z,85.90
2023-05-09T00:19:28.117Z,85.90
2023-05-09T00:21:54.779Z,85.90
2023-05-09T00:24:21.428Z,85.90
2023-05-09T00:26:48.049Z,85.80
2023-05-09T00:29:14.735Z,86.00
2023-05-09T00:31:41.373Z,85.90
2023-05-09T00:34:08.101Z,85.90
2023-05-09T00:36:34.728Z,85.80
2023-05-09T00:39:01.511Z,86.00
2023-05-09T00:41:28.175Z,85.90
2023-05-09T00:43:54.835Z,86.40
2023-05-09T00:46:21.825Z,87.60
2023-05-09T00:48:48.639Z,88.10
2023-05-09T00:51:15.818Z,87.90
2023-05-09T00:53:42.580Z,87.60
2023-05-09T00:56:10.975Z,87.40
2023-05-09T00:58:38.333Z,87.20
2023-05-09T01:01:05.111Z,87.10
2023-05-09T01:03:32.267Z,87.10
2023-05-09T01:06:22.249Z,87.20
2023-05-09T01:09:00.880Z,87.20
2023-05-09T01:11:39.238Z,87.00
2023-05-09T01:14:31.068Z,86.80
2023-05-09T01:17:03.003Z,86.40
2023-05-09T01:19:32.620Z,86.20
2023-05-09T01:22:02.147Z,86.20
2023-05-09T01:24:56.280Z,85.80
2023-05-09T01:27:32.263Z,85.90
2023-05-09T01:30:00.444Z,85.70
2023-05-09T01:32:29.420Z,85.80
2023-05-09T01:34:59.299Z,85.70
2023-05-09T01:37:35.468Z,85.70
2023-05-09T01:40:10.396Z,85.60
2023-05-09T01:42:44.212Z,85.60
2023-05-09T01:45:12.366Z,85.60
2023-05-09T01:47:40.773Z,85.70
2023-05-09T01:50:10.729Z,85.50
2023-05-09T01:52:39.051Z,85.60
2023-05-09T01:55:07.375Z,85.60
2023-05-09T01:57:36.262Z,85.50
2023-05-09T02:00:04.756Z,85.70
2023-05-09T02:02:32.516Z,85.50
2023-05-09T02:05:00.735Z,85.50
2023-05-09T02:07:29.736Z,85.50
2023-05-09T02:09:58.366Z,85.50
2023-05-09T02:12:25.412Z,85.50
2023-05-09T02:14:52.361Z,85.50
2023-05-09T02:17:19.240Z,85.60
2023-05-09T02:19:45.968Z,85.60
2023-05-09T02:22:13.822Z,85.70
2023-05-09T02:24:42.456Z,85.70
2023-05-09T02:27:11.321Z,85.60
2023-05-09T02:29:44.350Z,85.60
2023-05-09T02:32:16.561Z,85.60
2023-05-09T02:34:45.275Z,85.50
2023-05-09T02:37:13.216Z,85.60
2023-05-09T02:39:40.495Z,85.50
2023-05-09T02:42:10.627Z,85.50
2023-05-09T02:44:38.778Z,86.10
2023-05-09T02:47:07.149Z,86.00
2023-05-09T02:49:34.517Z,85.90
2023-05-09T02:52:01.514Z,86.00
2023-05-09T02:54:28.539Z,85.90
2023-05-09T02:56:55.370Z,85.90
2023-05-09T02:59:22.108Z,85.80
2023-05-09T03:01:48.851Z,85.90
2023-05-09T03:04:16.522Z,85.80
2023-05-09T03:06:43.327Z,85.90
2023-05-09T03:09:10.156Z,85.90
2023-05-09T03:11:36.978Z,85.80
2023-05-09T03:14:08.369Z,85.80
2023-05-09T03:16:35.288Z,85.70
2023-05-09T03:19:01.957Z,85.90
2023-05-09T03:21:28.592Z,85.90
2023-05-09T03:23:56.094Z,85.90
2023-05-09T03:26:22.772Z,85.90
2023-05-09T03:28:49.396Z,85.80
2023-05-09T03:31:16.172Z,85.80
2023-05-09T03:33:42.844Z,85.80
2023-05-09T03:36:09.654Z,85.80
2023-05-09T03:38:36.330Z,85.80
2023-05-09T03:41:03.906Z,85.80
2023-05-09T03:43:30.642Z,85.70
2023-05-09T03:45:57.341Z,85.70
2023-05-09T03:48:24.016Z,85.80
2023-05-09T03:50:51.013Z,85.80
2023-05-09T03:53:17.698Z,85.70
2023-05-09T03:55:44.331Z,85.80
2023-05-09T03:58:11.945Z,85.70
2023-05-09T04:00:39.182Z,85.80
2023-05-09T04:03:05.940Z,85.80
2023-05-09T04:05:33.762Z,85.80
2023-05-09T04:08:00.564Z,85.80
2023-05-09T04:10:27.273Z,85.70
2023-05-09T04:12:54.019Z,85.70
2023-05-09T04:15:20.785Z,85.90
2023-05-09T04:17:47.477Z,85.80
2023-05-09T04:20:15.068Z,85.80
2023-05-09T04:22:41.741Z,85.70
2023-05-09T04:25:12.377Z,85.80
2023-05-09T04:27:39.215Z,85.70
2023-05-09T04:30:06.800Z,85.80
2023-05-09T04:32:33.521Z,85.60
2023-05-09T04:35:00.267Z,85.60
2023-05-09T04:37:26.998Z,85.70
2023-05-09T04:39:53.658Z,85.70
2023-05-09T04:42:20.976Z,85.70
2023-05-09T04:44:49.299Z,85.70
2023-05-09T04:47:16.077Z,85.70
2023-05-09T04:49:42.727Z,85.70
2023-05-09T04:52:09.374Z,85.80
2023-05-09T04:54:36.013Z,85.70
2023-05-09T04:57:16.542Z,85.80
2023-05-09T04:59:44.269Z,85.70
2023-05-09T05:02:10.936Z,85.70
2023-05-09T05:04:37.604Z,85.80
2023-05-09T05:07:05.140Z,85.70
2023-05-09T05:09:31.782Z,85.70
2023-05-09T05:12:02.329Z,85.70
2023-05-09T05:14:30.420Z,85.70
2023-05-09T05:16:57.096Z,85.70
2023-05-09T05:19:23.759Z,85.70
2023-05-09T05:21:50.479Z,85.70
2023-05-09T05:24:17.132Z,85.60
2023-05-09T05:26:43.798Z,85.70
2023-05-09T05:29:10.567Z,85.80
2023-05-09T05:31:37.320Z,85.80
2023-05-09T05:34:04.066Z,85.80
2023-05-09T05:36:32.041Z,85.80
2023-05-09T05:38:58.798Z,85.70
2023-05-09T05:41:26.205Z,85.80
2023-05-09T05:43:54.296Z,85.70
2023-05-09T05:46:21.419Z,85.80
2023-05-09T05:48:48.255Z,85.90
2023-05-09T05:51:14.974Z,85.70
2023-05-09T05:53:42.106Z,85.90
2023-05-09T05:56:08.750Z,85.80
2023-05-09T05:58:35.479Z,85.80
2023-05-09T06:01:02.459Z,85.70
2023-05-09T06:03:29.270Z,85.80
2023-05-09T06:05:56.579Z,85.80
2023-05-09T06:08:23.453Z,85.70
2023-05-09T06:10:50.233Z,85.80
2023-05-09T06:13:17.010Z,85.80
2023-05-09T06:15:43.807Z,85.70
2023-05-09T06:18:10.826Z,85.50
2023-05-09T06:20:37.549Z,86.20
2023-05-09T06:23:04.220Z,86.50
2023-05-09T06:25:30.872Z,86.50
2023-05-09T06:27:57.626Z,86.40
2023-05-09T06:30:26.787Z,86.40
2023-05-09T06:32:54.691Z,86.30
2023-05-09T06:35:21.711Z,86.40
2023-05-09T06:37:49.130Z,86.40
2023-05-09T06:40:16.845Z,86.40
2023-05-09T06:42:44.249Z,86.60
2023-05-09T06:45:11.915Z,86.60
2023-05-09T06:47:38.752Z,86.50
2023-05-09T06:50:05.969Z,86.60
2023-05-09T06:52:32.616Z,86.40
2023-05-09T06:54:59.245Z,86.50
2023-05-09T06:57:25.997Z,86.40
2023-05-09T06:59:52.664Z,86.40
2023-05-09T07:02:19.458Z,86.40
2023-05-09T07:04:46.132Z,86.40
2023-05-09T07:07:12.814Z,86.40
2023-05-09T07:09:39.465Z,86.40
2023-05-09T07:12:06.309Z,86.40
2023-05-09T07:14:33.009Z,86.40
2023-05-09T07:17:13.687Z,86.40
2023-05-09T07:19:45.408Z,86.40
2023-05-09T07:22:13.391Z,86.30
2023-05-09T07:24:40.249Z,86.40
2023-05-09T07:27:06.978Z,86.40
2023-05-09T07:29:33.616Z,86.50
2023-05-09T07:32:00.274Z,86.40
2023-05-09T07:34:28.265Z,86.40
2023-05-09T07:36:54.975Z,86.40
2023-05-09T07:39:21.594Z,86.60
2023-05-09T07:41:48.845Z,86.10
2023-05-09T07:44:15.865Z,86.00
2023-05-09T07:46:42.690Z,87.40
2023-05-09T07:49:09.380Z,87.00
2023-05-09T07:51:36.073Z,87.10
2023-05-09T07:54:02.737Z,87.20
2023-05-09T07:56:29.459Z,87.20
2023-05-09T07:58:56.116Z,87.00
2023-05-09T08:01:22.737Z,86.90
2023-05-09T08:03:49.516Z,86.90
2023-05-09T08:06:16.313Z,86.60
2023-05-09T08:08:42.932Z,86.40
2023-05-09T08:11:09.645Z,86.40
2023-05-09T08:13:36.402Z,86.50
2023-05-09T08:16:03.148Z,86.80
2023-05-09T08:18:29.959Z,86.90
2023-05-09T08:20:58.473Z,87.00
2023-05-09T08:23:25.994Z,87.20
2023-05-09T08:25:54.241Z,87.20
2023-05-09T08:28:24.045Z,87.20
2023-05-09T08:30:51.578Z,87.30
2023-05-09T08:33:18.357Z,87.40
2023-05-09T08:35:45.308Z,87.30
2023-05-09T08:38:11.939Z,87.20
2023-05-09T08:40:39.011Z,87.10
2023-05-09T08:43:07.105Z,87.10
2023-05-09T08:45:39.993Z,87.10
2023-05-09T08:48:07.719Z,87.10
2023-05-09T08:50:35.476Z,87.10
2023-05-09T08:53:02.456Z,87.00
2023-05-09T08:55:29.495Z,86.90
2023-05-09T08:57:57.748Z,86.90
2023-05-09T09:00:25.924Z,86.90
2023-05-09T09:02:54.136Z,86.90
2023-05-09T09:05:40.223Z,86.90
2023-05-09T09:08:08.556Z,86.90
2023-05-09T09:10:35.644Z,86.60
2023-05-09T09:13:04.960Z,86.40
2023-05-09T09:15:36.262Z,86.50
2023-05-09T09:18:10.193Z,86.40
2023-05-09T09:20:48.475Z,86.50
2023-05-09T09:23:19.665Z,86.50
2023-05-09T09:25:47.355Z,86.60
2023-05-09T09:28:14.623Z,86.50
2023-05-09T09:30:50.532Z,86.60
2023-05-09T09:33:25.014Z,86.70
2023-05-09T09:35:53.155Z,87.70
2023-05-09T09:38:20.867Z,88.20
2023-05-09T09:40:57.728Z,88.40
2023-05-09T09:43:31.560Z,88.40
2023-05-09T09:46:02.900Z,88.20
2023-05-09T09:48:34.621Z,87.90
2023-05-09T09:51:11.441Z,87.80
2023-05-09T09:53:42.194Z,87.70
2023-05-09T09:56:09.693Z,87.90
2023-05-09T09:58:36.787Z,88.20
2023-05-09T10:01:10.579Z,88.70
2023-05-09T10:03:42.065Z,88.30
2023-05-09T10:06:12.732Z,88.40
2023-05-09T10:08:40.707Z,87.80
2023-05-09T10:11:07.581Z,88.00
2023-05-09T10:13:36.363Z,88.00
2023-05-09T10:16:04.133Z,89.60
2023-05-09T10:18:31.602Z,90.30
2023-05-09T10:21:04.078Z,90.40
2023-05-09T10:23:32.659Z,90.40
2023-05-09T10:26:16.526Z,90.20
2023-05-09T10:28:46.474Z,90.60
2023-05-09T10:31:20.884Z,90.60
2023-05-09T10:33:49.335Z,90.50
2023-05-09T10:36:18.345Z,90.40
2023-05-09T10:38:46.575Z,90.30
2023-05-09T10:41:14.525Z,90.20
2023-05-09T10:43:42.597Z,90.10
2023-05-09T10:46:09.923Z,90.10
2023-05-09T10:48:37.278Z,90.10
2023-05-09T10:51:05.167Z,89.90
2023-05-09T10:53:46.535Z,90.00
2023-05-09T10:56:35.600Z,90.00
2023-05-09T10:59:02.669Z,89.80
2023-05-09T11:01:35.388Z,90.00
2023-05-09T11:04:09.671Z,90.00
2023-05-09T11:06:47.514Z,89.80
2023-05-09T11:09:34.440Z,90.10
2023-05-09T11:12:21.072Z,90.40
2023-05-09T11:14:52.624Z,90.40
2023-05-09T11:17:22.591Z,90.50
2023-05-09T11:19:49.390Z,90.50
2023-05-09T11:22:21.407Z,90.80
2023-05-09T11:24:54.064Z,91.50
2023-05-09T11:27:25.728Z,92.30
2023-05-09T11:29:56.550Z,93.70
2023-05-09T11:32:31.111Z,94.30
2023-05-09T11:35:07.411Z,94.40
2023-05-09T11:37:34.111Z,95.50
2023-05-09T11:40:04.639Z,95.80
2023-05-09T11:42:31.902Z,96.10
2023-05-09T11:44:59.141Z,95.80
2023-05-09T11:47:29.121Z,95.50
2023-05-09T11:49:55.914Z,95.30
2023-05-09T11:52:22.603Z,95.00
2023-05-09T11:54:51.894Z,94.90
2023-05-09T11:57:18.578Z,94.90
2023-05-09T11:59:45.532Z,94.70
2023-05-09T12:02:12.823Z,94.30
2023-05-09T12:04:39.983Z,94.20
2023-05-09T12:07:06.924Z,94.00
2023-05-09T12:09:37.757Z,93.90
2023-05-09T12:12:11.763Z,93.80
2023-05-09T12:14:39.676Z,93.70
2023-05-09T12:17:07.990Z,93.50
2023-05-09T12:19:35.122Z,93.40
2023-05-09T12:22:03.855Z,93.10
2023-05-09T12:24:31.319Z,93.10
2023-05-09T12:26:59.557Z,92.80
2023-05-09T12:29:27.097Z,93.30
2023-05-09T12:31:54.502Z,93.10
2023-05-09T12:34:21.617Z,93.00
2023-05-09T12:36:50.779Z,93.00
2023-05-09T12:39:19.413Z,92.90
2023-05-09T12:41:53.890Z,92.90
2023-05-09T12:44:29.536Z,93.20
2023-05-09T12:47:04.492Z,93.10
2023-05-09T12:49:32.391Z,92.90
2023-05-09T12:52:02.979Z,92.90
2023-05-09T12:54:31.388Z,92.40
2023-05-09T12:56:58.741Z,92.40
2023-05-09T12:59:27.046Z,92.20
2023-05-09T13:01:58.073Z,92.40
2023-05-09T13:04:26.620Z,92.30
2023-05-09T13:06:55.785Z,92.30
2023-05-09T13:09:23.948Z,92.30
2023-05-09T13:11:52.031Z,92.10
2023-05-09T13:14:21.553Z,92.00
2023-05-09T13:16:48.406Z,92.00
2023-05-09T13:19:15.239Z,92.30
2023-05-09T13:21:41.901Z,92.20
2023-05-09T13:24:08.581Z,92.40
2023-05-09T13:26:36.509Z,92.50
2023-05-09T13:29:03.202Z,92.60
2023-05-09T13:31:30.772Z,92.70
2023-05-09T13:33:57.426Z,92.80
2023-05-09T13:36:24.128Z,92.80
2023-05-09T13:38:50.978Z,92.80
2023-05-09T13:41:21.699Z,92.70
2023-05-09T13:43:48.476Z,92.70
2023-05-09T13:46:15.597Z,92.70
2023-05-09T13:48:42.380Z,92.60
2023-05-09T13:51:09.867Z,92.50
2023-05-09T13:53:38.654Z,92.60
2023-05-09T13:56:09.091Z,92.40
2023-05-09T13:58:36.252Z,92.30
2023-05-09T14:01:03.178Z,92.20
2023-05-09T14:03:30.000Z,92.20
2023-05-09T14:05:56.959Z,92.00
2023-05-09T14:08:23.842Z,92.10
2023-05-09T14:10:51.091Z,92.00
2023-05-09T14:13:18.099Z,91.80
2023-05-09T14:15:44.866Z,91.80
2023-05-09T14:18:15.933Z,91.80
2023-05-09T14:20:44.485Z,91.80
2023-05-09T14:23:11.157Z,91.70
2023-05-09T14:25:37.884Z,91.70
2023-05-09T14:28:06.827Z,91.60
2023-05-09T14:30:34.185Z,91.50
2023-05-09T14:33:00.832Z,91.40
2023-05-09T14:35:27.645Z,91.40
2023-05-09T14:37:54.328Z,91.40
2023-05-09T14:40:21.640Z,91.20
2023-05-09T14:42:48.520Z,91.10
2023-05-09T14:45:15.337Z,91.10
2023-05-09T14:47:42.051Z,91.00
2023-05-09T14:50:11.378Z,91.00
2023-05-09T14:52:38.024Z,90.90
2023-05-09T14:55:06.174Z,90.90
2023-05-09T14:57:33.207Z,90.90
2023-05-09T15:00:12.677Z,90.80
2023-05-09T15:02:47.123Z,90.70
2023-05-09T15:05:13.945Z,90.70
2023-05-09T15:07:40.635Z,90.70
2023-05-09T15:10:07.757Z,90.50
2023-05-09T15:12:34.455Z,90.50
2023-05-09T15:15:23.329Z,90.50
2023-05-09T15:17:50.628Z,90.30
2023-05-09T15:20:18.260Z,90.30
2023-05-09T15:22:49.887Z,90.20
2023-05-09T15:25:16.865Z,90.20
2023-05-09T15:27:43.539Z,90.20
2023-05-09T15:30:10.889Z,90.30
2023-05-09T15:32:40.705Z,90.00
2023-05-09T15:35:08.333Z,90.00
2023-05-09T15:37:35.863Z,90.00
2023-05-09T15:40:03.088Z,90.00
2023-05-09T15:42:29.762Z,90.00
2023-05-09T15:44:56.856Z,89.90
2023-05-09T15:47:23.542Z,89.90
2023-05-09T15:49:50.205Z,89.80
2023-05-09T15:52:17.003Z,89.80
2023-05-09T15:54:45.186Z,90.00
2023-05-09T15:57:13.291Z,89.80
2023-05-09T15:59:40.281Z,90.00
2023-05-09T16:02:07.052Z,89.80
2023-05-09T16:04:34.225Z,89.80
2023-05-09T16:07:02.353Z,89.70
2023-05-09T16:09:29.186Z,89.60
2023-05-09T16:11:56.290Z,89.80
2023-05-09T16:14:23.367Z,89.70
2023-05-09T16:16:51.634Z,89.40
2023-05-09T16:19:18.279Z,89.60
2023-05-09T16:21:47.830Z,89.70
2023-05-09T16:24:14.515Z,89.60
2023-05-09T16:26:41.208Z,89.50
2023-05-09T16:29:07.949Z,89.50
2023-05-09T16:31:35.656Z,89.20
2023-05-09T16:34:02.979Z,89.20
2023-05-09T16:36:30.319Z,89.20
2023-05-09T16:38:57.018Z,89.20
2023-05-09T16:41:23.698Z,89.10
2023-05-09T16:43:50.358Z,89.20
2023-05-09T16:46:17.089Z,89.10
2023-05-09T16:48:43.816Z,89.00
2023-05-09T16:51:10.454Z,89.00
2023-05-09T16:53:37.094Z,89.10
2023-05-09T16:56:05.033Z,89.20
2023-05-09T16:58:31.682Z,89.40
2023-05-09T17:01:00.275Z,89.60
2023-05-09T17:03:26.965Z,89.50
2023-05-09T17:05:53.727Z,88.80
2023-05-09T17:08:20.402Z,88.40
2023-05-09T17:10:47.058Z,87.90
2023-05-09T17:13:13.699Z,88.50
2023-05-09T17:15:40.410Z,89.20
2023-05-09T17:18:07.146Z,89.30
2023-05-09T17:20:33.857Z,89.30
2023-05-09T17:23:00.535Z,89.20
2023-05-09T17:25:27.356Z,89.20
2023-05-09T17:27:53.971Z,89.10
2023-05-09T17:30:23.037Z,89.00
2023-05-09T17:32:50.147Z,89.00
2023-05-09T17:35:19.323Z,88.30
2023-05-09T17:37:46.223Z,87.90
2023-05-09T17:40:13.357Z,87.70
2023-05-09T17:42:41.188Z,87.60
2023-05-09T17:45:09.832Z,87.60
2023-05-09T17:47:37.393Z,87.50
2023-05-09T17:50:04.672Z,87.50
2023-05-09T17:52:31.595Z,87.50
2023-05-09T17:54:58.322Z,87.50
2023-05-09T17:57:25.050Z,88.10
2023-05-09T17:59:51.851Z,87.90
2023-05-09T18:02:23.759Z,87.70
2023-05-09T18:04:51.221Z,87.70
2023-05-09T18:07:18.271Z,87.70
2023-05-09T18:09:45.278Z,87.60
2023-05-09T18:12:12.255Z,87.50
2023-05-09T18:14:39.414Z,87.50
2023-05-09T18:17:06.051Z,87.40
2023-05-09T18:19:33.725Z,87.50
2023-05-09T18:22:00.471Z,87.50
2023-05-09T18:24:27.462Z,87.50
2023-05-09T18:26:54.097Z,87.50
2023-05-09T18:29:20.758Z,87.50
2023-05-09T18:31:47.432Z,87.50
2023-05-09T18:34:14.174Z,87.50
2023-05-09T18:36:40.903Z,87.50
2023-05-09T18:39:08.807Z,88.40
2023-05-09T18:41:35.562Z,89.80
2023-05-09T18:44:02.300Z,90.20
2023-05-09T18:46:31.447Z,90.00
2023-05-09T18:48:58.187Z,90.20
2023-05-09T18:51:25.523Z,89.80
2023-05-09T18:53:52.342Z,88.70
2023-05-09T18:56:21.261Z,87.80
2023-05-09T18:58:50.049Z,87.70
2023-05-09T19:01:17.444Z,87.50
2023-05-09T19:03:46.092Z,87.50
2023-05-09T19:06:13.964Z,87.50
2023-05-09T19:08:44.037Z,87.50
2023-05-09T19:11:11.609Z,87.60
2023-05-09T19:13:40.085Z,87.60
2023-05-09T19:16:07.626Z,87.60
2023-05-09T19:18:34.736Z,87.70
2023-05-09T19:21:01.611Z,87.70
2023-05-09T19:23:28.309Z,87.70
2023-05-09T19:25:55.322Z,87.80
2023-05-09T19:28:22.939Z,87.80
2023-05-09T19:30:50.316Z,87.80
2023-05-09T19:33:17.743Z,87.80
2023-05-09T19:35:45.215Z,87.80
2023-05-09T19:38:12.069Z,87.70
2023-05-09T19:40:39.656Z,87.80
2023-05-09T19:43:06.553Z,87.90
2023-05-09T19:45:33.296Z,87.80
2023-05-09T19:48:00.588Z,87.80
2023-05-09T19:50:27.582Z,87.70
2023-05-09T19:52:54.237Z,87.80
2023-05-09T19:55:20.935Z,87.80
2023-05-09T19:57:47.586Z,87.80
2023-05-09T20:00:14.678Z,87.80
2023-05-09T20:02:41.675Z,87.90
2023-05-09T20:05:08.892Z,87.90
2023-05-09T20:07:35.542Z,87.90
2023-05-09T20:10:02.362Z,87.90
2023-05-09T20:12:30.230Z,88.10
2023-05-09T20:14:57.367Z,88.00
2023-05-09T20:17:24.142Z,87.90
2023-05-09T20:19:51.242Z,88.40
2023-05-09T20:22:17.982Z,88.20
2023-05-09T20:24:44.674Z,88.10
2023-05-09T20:27:11.371Z,88.10
2023-05-09T20:29:38.028Z,88.20
2023-05-09T20:32:04.850Z,88.10
2023-05-09T20:34:31.583Z,88.00
2023-05-09T20:36:58.381Z,87.90
2023-05-09T20:39:25.125Z,88.00
2023-05-09T20:41:52.434Z,88.20
2023-05-09T20:44:19.213Z,88.30
2023-05-09T20:46:46.084Z,88.10
2023-05-09T20:49:13.041Z,88.10
2023-05-09T20:51:39.997Z,88.10
2023-05-09T20:54:06.838Z,88.10
2023-05-09T20:56:35.464Z,88.10
2023-05-09T20:59:04.086Z,88.10
2023-05-09T21:01:32.415Z,88.10
2023-05-09T21:03:59.320Z,88.10
2023-05-09T21:06:26.038Z,88.20
2023-05-09T21:08:52.722Z,88.10
2023-05-09T21:11:19.491Z,88.40
2023-05-09T21:13:46.180Z,88.40
2023-05-09T21:16:12.873Z,88.40
2023-05-09T21:18:39.522Z,88.30
2023-05-09T21:21:10.095Z,88.40
2023-05-09T21:23:36.796Z,88.30
2023-05-09T21:26:03.452Z,88.40
2023-05-09T21:28:30.366Z,90.00
2023-05-09T21:30:57.228Z,91.50
2023-05-09T21:33:23.920Z,91.70
2023-05-09T21:35:50.558Z,90.50
2023-05-09T21:38:17.204Z,91.20
2023-05-09T21:40:43.885Z,91.10
2023-05-09T21:43:10.858Z,91.00
2023-05-09T21:45:37.591Z,90.80
2023-05-09T21:48:04.516Z,91.00
2023-05-09T21:50:31.219Z,91.00
2023-05-09T21:52:57.873Z,91.00
2023-05-09T21:55:24.626Z,90.80
2023-05-09T21:57:51.251Z,90.80
2023-05-09T22:00:18.431Z,90.50
2023-05-09T22:02:45.312Z,90.00
2023-05-09T22:05:12.549Z,90.60
2023-05-09T22:07:39.283Z,91.10
2023-05-09T22:10:06.994Z,91.20
2023-05-09T22:12:33.750Z,90.90
2023-05-09T22:15:00.448Z,90.70
2023-05-09T22:17:27.107Z,90.70
2023-05-09T22:19:53.899Z,90.90
2023-05-09T22:22:21.286Z,91.00
2023-05-09T22:24:49.552Z,90.80
2023-05-09T22:27:16.328Z,90.80
2023-05-09T22:29:42.992Z,90.70
2023-05-09T22:32:10.031Z,91.00
2023-05-09T22:34:37.169Z,91.00
2023-05-09T22:37:04.050Z,90.80
2023-05-09T22:39:30.935Z,90.50
2023-05-09T22:41:57.722Z,90.30
2023-05-09T22:44:24.412Z,90.10
2023-05-09T22:46:51.159Z,90.00
2023-05-09T22:49:17.775Z,89.70
2023-05-09T22:51:44.471Z,89.60
2023-05-09T22:54:11.479Z,89.40
2023-05-09T22:56:38.132Z,89.20
2023-05-09T22:59:04.879Z,89.20
2023-05-09T23:01:50.594Z,89.60
2023-05-09T23:04:17.298Z,89.60
2023-05-09T23:06:44.220Z,89.80
2023-05-09T23:09:10.905Z,90.20
2023-05-09T23:11:37.829Z,90.10
2023-05-09T23:14:04.594Z,90.10
2023-05-09T23:16:31.247Z,90.10
2023-05-09T23:18:57.905Z,89.80
2023-05-09T23:21:24.591Z,89.70
2023-05-09T23:23:51.214Z,89.60
2023-05-09T23:26:18.090Z,89.50
2023-05-09T23:28:44.736Z,89.20
2023-05-09T23:31:11.415Z,89.10
2023-05-09T23:33:38.265Z,89.10
2023-05-09T23:36:05.272Z,88.90
2023-05-09T23:38:32.046Z,89.10
2023-05-09T23:41:00.073Z,89.10
2023-05-09T23:43:26.961Z,89.40
2023-05-09T23:45:53.858Z,89.40
2023-05-09T23:48:20.648Z,89.20
2023-05-09T23:50:47.260Z,88.90
2023-05-09T23:53:14.219Z,88.50
2023-05-09T23:55:40.859Z,88.40
2023-05-09T23:58:09.698Z,89.30
